createdAt,value
2022-12-23T00:01:26.905Z,61.00
2022-12-23T00:04:12.706Z,60.83
2022-12-23T00:06:58.343Z,61.04
2022-12-23T00:09:44.070Z,60.66
2022-12-23T00:12:48.166Z,60.45
2022-12-23T00:15:34.505Z,60.73
2022-12-23T00:18:20.510Z,60.93
2022-12-23T00:21:10.856Z,60.60
2022-12-23T00:23:56.526Z,60.89
2022-12-23T00:26:42.315Z,60.94
2022-12-23T00:29:28.068Z,60.96
2022-12-23T00:32:13.773Z,60.57
2022-12-23T00:34:59.615Z,60.85
2022-12-23T00:37:45.507Z,60.59
2022-12-23T00:40:49.991Z,60.79
2022-12-23T00:43:35.900Z,61.21
2022-12-23T00:46:21.618Z,61.24
2022-12-23T00:49:33.924Z,61.24
2022-12-23T00:52:19.794Z,60.78
2022-12-23T00:55:06.227Z,61.01
2022-12-23T00:57:51.955Z,61.14
2022-12-23T01:00:56.304Z,61.07
2022-12-23T01:04:09.271Z,61.35
2022-12-23T01:06:55.133Z,61.06
2022-12-23T01:09:41.349Z,61.12
2022-12-23T01:12:27.800Z,61.44
2022-12-23T01:15:21.146Z,61.56
2022-12-23T01:18:07.480Z,60.86
2022-12-23T01:20:53.491Z,61.21
2022-12-23T01:23:39.398Z,61.18
2022-12-23T01:26:25.363Z,60.94
2022-12-23T01:29:30.381Z,60.95
2022-12-23T01:32:16.475Z,60.94
2022-12-23T01:35:02.469Z,61.39
2022-12-23T01:37:59.722Z,61.34
2022-12-23T01:40:46.056Z,61.02
2022-12-23T01:44:34.611Z,61.18
2022-12-23T01:47:33.829Z,61.38
2022-12-23T01:50:24.559Z,61.39
2022-12-23T01:53:16.679Z,61.17
2022-12-23T01:56:20.034Z,60.84
2022-12-23T02:00:04.793Z,61.18
2022-12-23T02:03:40.146Z,61.42
2022-12-23T02:10:00.188Z,60.62
2022-12-23T02:12:52.587Z,61.23
2022-12-23T02:16:19.119Z,61.30
2022-12-23T02:19:44.606Z,61.42
2022-12-23T02:22:36.483Z,61.30
2022-12-23T02:25:31.317Z,60.82
2022-12-23T02:28:54.687Z,61.49
2022-12-23T02:32:28.621Z,60.95
2022-12-23T02:35:29.916Z,61.40
2022-12-23T02:38:39.279Z,61.37
2022-12-23T02:42:19.525Z,61.15
2022-12-23T02:45:47.864Z,61.09
2022-12-23T02:48:41.752Z,61.48
2022-12-23T02:51:32.980Z,61.72
2022-12-23T02:54:31.304Z,61.12
2022-12-23T02:57:20.702Z,61.36
2022-12-23T03:00:08.119Z,61.62
2022-12-23T03:02:54.260Z,61.29
2022-12-23T03:05:45.890Z,61.37
2022-12-23T03:08:37.791Z,60.98
2022-12-23T03:12:00.326Z,61.36
2022-12-23T03:15:19.526Z,61.10
2022-12-23T03:18:20.604Z,61.07
2022-12-23T03:21:42.729Z,61.00
2022-12-23T03:24:28.430Z,61.15
2022-12-23T03:27:44.988Z,61.24
2022-12-23T03:30:45.865Z,61.60
2022-12-23T03:33:38.532Z,60.83
2022-12-23T03:37:01.111Z,61.09
2022-12-23T03:40:28.899Z,61.69
2022-12-23T03:43:50.618Z,61.44
2022-12-23T03:47:17.409Z,61.75
2022-12-23T03:50:39.186Z,61.68
2022-12-23T03:54:08.184Z,61.29
2022-12-23T03:56:59.203Z,61.46
2022-12-23T03:59:50.547Z,61.50
2022-12-23T04:02:42.332Z,61.45
2022-12-23T04:05:49.732Z,61.62
2022-12-23T04:09:21.704Z,61.82
2022-12-23T04:12:15.540Z,61.17
2022-12-23T04:15:04.942Z,61.38
2022-12-23T04:17:56.630Z,60.93
2022-12-23T04:20:42.259Z,61.22
2022-12-23T04:23:27.993Z,61.79
2022-12-23T04:26:26.363Z,61.63
2022-12-23T04:29:11.926Z,61.60
2022-12-23T04:32:33.696Z,61.70
2022-12-23T04:35:30.640Z,61.50
2022-12-23T04:38:16.484Z,61.68
2022-12-23T04:41:02.243Z,61.74
2022-12-23T04:43:53.127Z,61.61
2022-12-23T04:46:53.645Z,61.56
2022-12-23T04:49:44.021Z,61.10
2022-12-23T04:52:29.820Z,61.85
2022-12-23T04:55:18.932Z,61.42
2022-12-23T04:58:04.712Z,61.45
2022-12-23T05:00:50.599Z,61.87
2022-12-23T05:03:37.084Z,61.20
2022-12-23T05:06:22.894Z,61.44
2022-12-23T05:09:42.846Z,61.28
2022-12-23T05:12:29.986Z,61.41
2022-12-23T05:15:15.876Z,61.76
2022-12-23T05:18:40.709Z,61.66
2022-12-23T05:21:26.903Z,61.44
2022-12-23T05:24:15.755Z,61.42
2022-12-23T05:27:03.595Z,61.86
2022-12-23T05:29:59.884Z,61.27
2022-12-23T05:32:55.882Z,61.46
2022-12-23T05:35:41.860Z,61.63
2022-12-23T05:38:27.809Z,61.13
2022-12-23T05:41:14.243Z,61.08
2022-12-23T05:43:59.791Z,61.49
2022-12-23T05:46:45.399Z,61.92
2022-12-23T05:49:31.120Z,61.89
2022-12-23T05:52:16.713Z,61.92
2022-12-23T05:55:02.557Z,61.67
2022-12-23T05:57:48.257Z,62.08
2022-12-23T06:00:34.343Z,61.72
2022-12-23T06:03:20.265Z,61.55
2022-12-23T06:06:06.338Z,61.32
2022-12-23T06:08:57.468Z,61.78
2022-12-23T06:11:45.509Z,61.22
2022-12-23T06:14:31.272Z,61.68
2022-12-23T06:17:17.317Z,61.62
2022-12-23T06:20:03.793Z,61.96
2022-12-23T06:22:49.744Z,61.54
2022-12-23T06:25:35.476Z,61.50
2022-12-23T06:28:21.331Z,61.76
2022-12-23T06:31:06.989Z,61.70
2022-12-23T06:33:52.725Z,61.66
2022-12-23T06:36:38.364Z,61.76
2022-12-23T06:39:23.928Z,62.13
2022-12-23T06:42:12.597Z,61.74
2022-12-23T06:44:58.275Z,61.80
2022-12-23T06:47:44.027Z,61.85
2022-12-23T06:50:31.862Z,61.74
2022-12-23T06:53:18.527Z,62.11
2022-12-23T06:56:05.937Z,61.71
2022-12-23T06:58:52.679Z,62.09
2022-12-23T07:01:38.670Z,62.18
2022-12-23T07:04:24.654Z,61.70
2022-12-23T07:07:10.346Z,61.72
2022-12-23T07:09:55.929Z,61.70
2022-12-23T07:12:46.035Z,61.81
2022-12-23T07:15:35.721Z,61.84
2022-12-23T07:18:23.080Z,61.42
2022-12-23T07:21:17.733Z,62.06
2022-12-23T07:24:08.230Z,61.57
2022-12-23T07:26:55.968Z,61.68
2022-12-23T07:29:41.701Z,61.52
2022-12-23T07:32:27.373Z,61.23
2022-12-23T07:35:12.897Z,61.40
2022-12-23T07:37:58.594Z,61.40
2022-12-23T07:40:44.314Z,61.77
2022-12-23T07:43:30.066Z,61.79
2022-12-23T07:46:15.808Z,61.43
2022-12-23T07:49:01.461Z,61.63
2022-12-23T07:51:47.264Z,61.62
2022-12-23T07:54:40.018Z,61.88
2022-12-23T07:57:26.841Z,61.47
2022-12-23T08:00:14.081Z,61.47
2022-12-23T08:03:00.063Z,61.49
2022-12-23T08:05:46.139Z,61.79
2022-12-23T08:08:32.319Z,61.66
2022-12-23T08:11:18.125Z,61.53
2022-12-23T08:14:04.177Z,61.83
2022-12-23T08:16:49.944Z,61.79
2022-12-23T08:19:35.781Z,61.54
2022-12-23T08:22:21.487Z,61.47
2022-12-23T08:25:07.703Z,61.86
2022-12-23T08:27:53.774Z,61.70
2022-12-23T08:30:41.633Z,61.99
2022-12-23T08:33:27.198Z,61.87
2022-12-23T08:36:20.821Z,61.81
2022-12-23T08:39:25.155Z,61.54
2022-12-23T08:42:15.380Z,61.46
2022-12-23T08:45:01.447Z,61.53
2022-12-23T08:47:46.990Z,61.69
2022-12-23T08:50:38.492Z,61.19
2022-12-23T08:53:24.211Z,61.24
2022-12-23T08:56:23.992Z,61.24
2022-12-23T08:59:19.043Z,61.28
2022-12-23T09:02:05.688Z,61.36
2022-12-23T09:04:51.522Z,60.98
2022-12-23T09:07:37.155Z,60.94
2022-12-23T09:10:23.431Z,60.95
2022-12-23T09:13:10.860Z,61.08
2022-12-23T09:15:57.034Z,60.74
2022-12-23T09:18:43.103Z,60.93
2022-12-23T09:21:29.434Z,60.58
2022-12-23T09:24:15.091Z,60.55
2022-12-23T09:27:00.841Z,60.61
2022-12-23T09:29:46.326Z,60.16
2022-12-23T09:32:32.676Z,60.37
2022-12-23T09:35:18.439Z,60.27
2022-12-23T09:38:04.016Z,60.31
2022-12-23T09:40:49.716Z,60.22
2022-12-23T09:44:02.143Z,60.39
2022-12-23T09:46:51.979Z,60.20
2022-12-23T09:49:42.504Z,60.02
2022-12-23T09:52:45.358Z,60.00
2022-12-23T09:55:57.276Z,60.11
2022-12-23T09:58:57.903Z,60.02
2022-12-23T10:01:46.542Z,59.73
2022-12-23T10:04:54.322Z,59.76
2022-12-23T10:07:44.528Z,60.02
2022-12-23T10:10:40.883Z,59.54
2022-12-23T10:13:30.166Z,59.72
2022-12-23T10:16:19.491Z,59.67
2022-12-23T10:19:44.555Z,59.27
2022-12-23T10:22:51.660Z,59.34
2022-12-23T10:25:41.392Z,59.36
2022-12-23T10:28:29.911Z,59.27
2022-12-23T10:34:49.267Z,59.32
2022-12-23T10:37:39.141Z,59.30
2022-12-23T10:41:08.809Z,59.45
2022-12-23T10:44:21.960Z,58.61
2022-12-23T10:47:43.554Z,59.17
2022-12-23T10:50:57.147Z,58.85
2022-12-23T10:54:01.842Z,58.81
2022-12-23T10:56:47.803Z,58.89
2022-12-23T10:59:35.969Z,58.76
2022-12-23T11:02:25.468Z,58.46
2022-12-23T11:05:15.093Z,58.39
2022-12-23T11:08:02.018Z,58.45
2022-12-23T11:10:48.599Z,58.20
2022-12-23T11:13:35.518Z,58.23
2022-12-23T11:16:24.156Z,58.19
2022-12-23T11:19:15.233Z,57.70
2022-12-23T11:22:02.302Z,57.20
2022-12-23T11:24:48.208Z,56.89
2022-12-23T11:27:34.664Z,56.90
2022-12-23T11:30:20.599Z,56.30
2022-12-23T11:33:06.729Z,56.01
2022-12-23T11:36:24.068Z,55.23
2022-12-23T11:39:09.959Z,55.93
2022-12-23T11:42:05.435Z,55.94
2022-12-23T11:44:53.666Z,55.75
2022-12-23T11:47:41.184Z,55.35
2022-12-23T11:50:39.479Z,55.00
2022-12-23T11:53:26.042Z,55.15
2022-12-23T11:56:15.522Z,54.92
2022-12-23T11:59:19.095Z,54.86
2022-12-23T12:02:14.514Z,54.51
2022-12-23T12:05:17.001Z,54.11
2022-12-23T12:08:06.603Z,54.07
2022-12-23T12:10:54.210Z,53.94
2022-12-23T12:13:41.937Z,54.42
2022-12-23T12:16:31.246Z,54.62
2022-12-23T12:19:26.007Z,53.82
2022-12-23T12:22:38.663Z,53.17
2022-12-23T12:25:39.918Z,53.29
2022-12-23T12:28:42.032Z,53.10
2022-12-23T12:31:47.608Z,51.20
2022-12-23T12:35:00.386Z,52.21
2022-12-23T12:37:53.734Z,53.08
2022-12-23T12:40:46.069Z,52.35
2022-12-23T12:43:38.403Z,52.34
2022-12-23T12:46:29.208Z,52.35
2022-12-23T12:49:36.046Z,51.20
2022-12-23T12:52:26.609Z,52.37
2022-12-23T12:55:43.853Z,52.41
2022-12-23T12:58:29.775Z,53.08
2022-12-23T13:06:03.297Z,53.68
2022-12-23T13:09:01.584Z,54.39
2022-12-23T13:12:34.249Z,54.23
2022-12-23T13:15:22.955Z,54.66
2022-12-23T13:18:28.522Z,54.84
2022-12-23T13:21:18.477Z,55.13
2022-12-23T13:24:29.521Z,55.39
2022-12-23T13:27:22.273Z,55.61
2022-12-23T13:30:13.236Z,55.41
2022-12-23T13:33:37.969Z,54.96
2022-12-23T13:36:42.983Z,54.40
2022-12-23T13:40:45.950Z,53.42
2022-12-23T13:43:42.837Z,53.94
2022-12-23T13:47:08.332Z,53.07
2022-12-23T13:50:02.997Z,53.22
2022-12-23T13:52:54.694Z,52.57
2022-12-23T13:55:56.711Z,52.33
2022-12-23T13:58:50.319Z,52.11
2022-12-23T14:01:52.487Z,51.79
2022-12-23T14:05:30.055Z,51.04
2022-12-23T14:08:18.921Z,51.72
2022-12-23T14:11:44.331Z,52.20
2022-12-23T14:15:27.286Z,51.87
2022-12-23T14:19:08.628Z,52.35
2022-12-23T14:23:08.929Z,53.02
2022-12-23T14:26:15.154Z,53.57
2022-12-23T14:29:47.173Z,53.53
2022-12-23T14:33:14.718Z,53.94
2022-12-23T14:36:21.793Z,54.10
2022-12-23T14:39:44.604Z,54.35
2022-12-23T14:42:57.668Z,54.60
2022-12-23T14:45:57.448Z,54.66
2022-12-23T14:49:04.295Z,55.01
2022-12-23T14:52:45.030Z,54.96
2022-12-23T14:55:32.687Z,55.42
2022-12-23T14:58:22.336Z,55.29
2022-12-23T15:01:13.407Z,55.41
2022-12-23T15:04:41.152Z,55.80
2022-12-23T15:08:13.168Z,56.30
2022-12-23T15:10:59.605Z,56.10
2022-12-23T15:13:45.483Z,55.90
2022-12-23T15:16:34.690Z,55.94
2022-12-23T15:19:23.805Z,56.39
2022-12-23T15:22:21.257Z,56.00
2022-12-23T15:25:25.967Z,56.22
2022-12-23T15:28:22.643Z,56.22
2022-12-23T15:31:26.450Z,56.41
2022-12-23T15:34:20.699Z,56.40
2022-12-23T15:37:12.161Z,56.83
2022-12-23T15:40:04.836Z,57.00
2022-12-23T15:42:58.817Z,56.61
2022-12-23T15:45:44.699Z,57.04
2022-12-23T15:48:32.334Z,57.13
2022-12-23T15:52:06.513Z,56.75
2022-12-23T15:54:54.431Z,56.87
2022-12-23T15:57:49.748Z,57.27
2022-12-23T16:00:38.472Z,56.97
2022-12-23T16:03:24.490Z,57.17
2022-12-23T16:06:46.382Z,56.68
2022-12-23T16:09:36.067Z,57.43
2022-12-23T16:12:27.488Z,57.45
2022-12-23T16:15:32.036Z,57.69
2022-12-23T16:18:23.708Z,57.18
2022-12-23T16:21:13.519Z,57.51
2022-12-23T16:23:59.962Z,57.24
2022-12-23T16:26:46.214Z,57.74
2022-12-23T16:29:33.606Z,57.06
2022-12-23T16:32:19.933Z,57.69
2022-12-23T16:35:26.308Z,57.93
2022-12-23T16:38:23.890Z,57.97
2022-12-23T16:41:09.700Z,57.94
2022-12-23T16:43:55.524Z,57.86
2022-12-23T16:46:47.109Z,57.72
2022-12-23T16:49:34.328Z,57.37
2022-12-23T16:52:24.297Z,57.48
2022-12-23T16:55:19.098Z,58.04
2022-12-23T16:58:05.200Z,57.57
2022-12-23T17:00:51.594Z,58.32
2022-12-23T17:03:37.274Z,57.96
2022-12-23T17:06:23.826Z,57.81
2022-12-23T17:09:11.696Z,57.80
2022-12-23T17:11:57.569Z,58.00
2022-12-23T17:14:43.495Z,58.30
2022-12-23T17:17:29.203Z,58.28
2022-12-23T17:20:16.345Z,58.08
2022-12-23T17:23:02.531Z,58.64
2022-12-23T17:25:48.145Z,57.99
2022-12-23T17:28:33.984Z,58.58
2022-12-23T17:31:26.503Z,58.51
2022-12-23T17:34:23.194Z,58.41
2022-12-23T17:37:20.491Z,59.08
2022-12-23T17:40:08.578Z,58.93
2022-12-23T17:42:54.437Z,58.57
2022-12-23T17:45:40.473Z,58.74
2022-12-23T17:48:31.747Z,58.76
2022-12-23T17:51:21.111Z,58.60
2022-12-23T17:54:07.296Z,58.67
2022-12-23T17:56:53.268Z,58.44
2022-12-23T17:59:38.999Z,58.72
2022-12-23T18:02:32.449Z,58.61
2022-12-23T18:05:30.153Z,58.84
2022-12-23T18:08:17.006Z,58.87
2022-12-23T18:11:03.213Z,59.20
2022-12-23T18:13:50.733Z,58.66
2022-12-23T18:16:36.767Z,59.17
2022-12-23T18:19:22.500Z,59.17
2022-12-23T18:22:15.639Z,59.16
2022-12-23T18:25:02.777Z,59.36
2022-12-23T18:27:49.300Z,58.90
2022-12-23T18:30:35.298Z,59.30
2022-12-23T18:33:21.053Z,59.54
2022-12-23T18:36:20.575Z,59.67
2022-12-23T18:39:06.412Z,59.42
2022-12-23T18:41:52.332Z,59.67
2022-12-23T18:44:38.127Z,59.26
2022-12-23T18:47:24.033Z,59.64
2022-12-23T18:50:10.207Z,59.35
2022-12-23T18:52:56.384Z,59.27
2022-12-23T18:55:43.454Z,59.52
2022-12-23T18:58:29.067Z,59.81
2022-12-23T19:01:15.901Z,59.64
2022-12-23T19:04:01.671Z,59.61
2022-12-23T19:06:47.575Z,59.24
2022-12-23T19:09:33.375Z,59.54
2022-12-23T19:12:19.469Z,59.52
2022-12-23T19:15:05.840Z,59.59
2022-12-23T19:17:51.971Z,59.62
2022-12-23T19:20:37.616Z,59.98
2022-12-23T19:23:23.734Z,59.91
2022-12-23T19:26:11.004Z,59.43
2022-12-23T19:28:56.932Z,59.58
2022-12-23T19:31:42.805Z,59.81
2022-12-23T19:34:28.894Z,59.94
2022-12-23T19:37:14.688Z,60.01
2022-12-23T19:40:00.709Z,60.03
2022-12-23T19:42:46.484Z,59.96
2022-12-23T19:45:32.417Z,59.76
2022-12-23T19:48:18.317Z,59.63
2022-12-23T19:51:09.205Z,59.92
2022-12-23T19:53:55.171Z,59.96
2022-12-23T19:56:41.267Z,59.62
2022-12-23T19:59:27.432Z,59.87
2022-12-23T20:02:17.754Z,59.99
2022-12-23T20:05:03.772Z,60.00
2022-12-23T20:07:49.955Z,60.37
2022-12-23T20:10:35.649Z,60.06
2022-12-23T20:13:21.457Z,60.20
2022-12-23T20:16:07.865Z,60.09
2022-12-23T20:18:54.109Z,60.02
2022-12-23T20:21:40.061Z,60.28
2022-12-23T20:24:25.939Z,60.17
2022-12-23T20:27:13.945Z,60.10
2022-12-23T20:30:01.564Z,60.62
2022-12-23T20:32:47.322Z,60.35
2022-12-23T20:35:32.992Z,60.44
2022-12-23T20:38:18.804Z,60.50
2022-12-23T20:41:05.827Z,60.12
2022-12-23T20:44:23.846Z,60.37
2022-12-23T20:46:58.465Z,60.46
2022-12-23T20:49:44.177Z,60.15
2022-12-23T20:52:30.044Z,60.43
2022-12-23T20:55:17.056Z,60.50
2022-12-23T20:58:22.838Z,60.49
2022-12-23T21:01:12.949Z,60.64
2022-12-23T21:04:00.752Z,60.51
2022-12-23T21:06:46.474Z,60.46
2022-12-23T21:09:32.265Z,60.63
2022-12-23T21:12:17.931Z,60.61
2022-12-23T21:15:03.754Z,60.46
2022-12-23T21:17:49.729Z,60.39
2022-12-23T21:20:36.749Z,60.68
2022-12-23T21:23:22.726Z,60.23
2022-12-23T21:26:19.913Z,60.58
2022-12-23T21:29:07.748Z,60.76
2022-12-23T21:31:55.081Z,60.69
2022-12-23T21:34:41.222Z,60.35
2022-12-23T21:37:27.528Z,60.58
2022-12-23T21:40:13.894Z,60.47
2022-12-23T21:43:04.028Z,60.44
2022-12-23T21:46:00.042Z,60.81
2022-12-23T21:48:46.247Z,61.04
2022-12-23T21:51:39.593Z,60.50
2022-12-23T21:54:26.410Z,61.04
2022-12-23T21:57:12.033Z,60.55
2022-12-23T21:59:57.632Z,60.38
2022-12-23T22:02:43.330Z,60.91
2022-12-23T22:05:29.004Z,60.72
2022-12-23T22:08:14.925Z,60.86
2022-12-23T22:11:01.032Z,61.02
2022-12-23T22:13:47.432Z,60.91
2022-12-23T22:16:35.229Z,61.11
2022-12-23T22:19:21.383Z,61.08
2022-12-23T22:22:07.132Z,61.15
2022-12-23T22:24:53.053Z,61.22
2022-12-23T22:27:38.625Z,61.28
2022-12-23T22:30:24.517Z,61.39
2022-12-23T22:33:10.358Z,61.23
2022-12-23T22:35:56.883Z,61.18
2022-12-23T22:38:43.464Z,61.25
2022-12-23T22:41:30.240Z,61.19
2022-12-23T22:44:16.433Z,60.81
2022-12-23T22:47:02.538Z,60.79
2022-12-23T22:49:48.305Z,60.79
2022-12-23T22:52:34.691Z,60.70
2022-12-23T22:55:20.684Z,60.76
2022-12-23T22:58:06.913Z,60.95
2022-12-23T23:00:52.656Z,61.29
2022-12-23T23:03:38.220Z,61.21
2022-12-23T23:06:32.166Z,61.28
2022-12-23T23:09:19.534Z,61.26
2022-12-23T23:12:05.425Z,60.87
2022-12-23T23:14:54.216Z,61.22
2022-12-23T23:17:40.014Z,60.85
2022-12-23T23:20:25.627Z,61.02
2022-12-23T23:23:11.312Z,60.91
2022-12-23T23:25:56.871Z,60.89
2022-12-23T23:28:43.209Z,61.33
2022-12-23T23:31:42.039Z,60.92
2022-12-23T23:34:29.050Z,60.99
2022-12-23T23:37:15.708Z,61.01
2022-12-23T23:40:01.614Z,61.12
2022-12-23T23:42:47.445Z,61.46
2022-12-23T23:45:33.228Z,61.54
2022-12-23T23:48:20.928Z,61.54
2022-12-23T23:51:07.294Z,61.11
2022-12-23T23:53:53.050Z,61.64
2022-12-23T23:56:39.586Z,61.25
2022-12-23T23:59:25.403Z,61.37
